Time;durP1;ratioP1;P1;durP2;ratioP2;P2;SDS_P1;SDS_P2;PMS_P1;PMS_P2;Temp;Humidity;BMP_temperature;BMP_pressure;BME280_temperature;BME280_humidity;BME280_pressure;Samples;Min_cycle;Max_cycle;Signal;HPM_P1;HPM_P2
2021/07/06 00:02:20;;;;;;;7.60;5.47;;;21.40;91.50;;;;;;5072191;28;20385;-69
2021/07/06 00:05:07;;;;;;;27.10;12.57;;;21.40;91.60;;;;;;5071483;28;20072;-68
2021/07/06 00:07:53;;;;;;;13.85;7.70;;;21.40;91.70;;;;;;5072045;28;20033;-68
2021/07/06 00:10:39;;;;;;;22.02;11.32;;;21.30;91.80;;;;;;5072937;28;20044;-68
2021/07/06 00:13:25;;;;;;;27.00;13.55;;;21.30;91.80;;;;;;5071597;28;20031;-68
2021/07/06 00:16:11;;;;;;;9.77;6.47;;;21.30;91.90;;;;;;5081558;28;20054;-68
2021/07/06 00:18:58;;;;;;;34.83;16.77;;;21.30;92.10;;;;;;5078076;28;20115;-68
2021/07/06 00:21:44;;;;;;;19.67;10.05;;;21.20;92.10;;;;;;5072097;28;20056;-69
2021/07/06 00:24:30;;;;;;;29.85;14.65;;;21.20;92.10;;;;;;5071956;28;20534;-69
2021/07/06 00:27:16;;;;;;;20.83;11.38;;;21.20;92.20;;;;;;5071877;28;20111;-69
2021/07/06 00:30:04;;;;;;;15.70;8.05;;;21.20;92.30;;;;;;5071443;28;20032;-69
2021/07/06 00:32:51;;;;;;;18.52;10.45;;;21.20;92.30;;;;;;5071332;28;21062;-69
2021/07/06 00:35:37;;;;;;;15.52;10.07;;;21.20;92.50;;;;;;5071534;28;20036;-69
2021/07/06 00:38:23;;;;;;;15.07;9.23;;;21.20;92.50;;;;;;5071044;28;20028;-69
2021/07/06 00:41:09;;;;;;;23.10;12.00;;;21.20;92.50;;;;;;5071531;28;20028;-69
2021/07/06 00:43:55;;;;;;;17.52;10.52;;;21.30;92.50;;;;;;5070605;28;20024;-69
2021/07/06 00:46:41;;;;;;;10.35;6.82;;;21.30;92.50;;;;;;5072364;28;20039;-69
2021/07/06 00:49:27;;;;;;;12.45;7.95;;;21.30;92.50;;;;;;5070267;28;20103;-69
2021/07/06 00:52:12;;;;;;;6.85;3.90;;;21.30;92.50;;;;;;5071498;28;20078;-69
2021/07/06 00:54:58;;;;;;;13.02;7.78;;;21.20;92.40;;;;;;5071694;28;20123;-69
2021/07/06 00:57:45;;;;;;;9.82;5.93;;;21.20;92.50;;;;;;5069107;28;20021;-69
2021/07/06 01:00:31;;;;;;;6.85;3.85;;;21.20;92.50;;;;;;5070527;28;20029;-68
2021/07/06 01:03:17;;;;;;;5.20;3.40;;;21.30;92.60;;;;;;5071660;28;20021;-69
2021/07/06 01:06:03;;;;;;;6.15;3.50;;;21.20;92.60;;;;;;5052093;28;20112;-69
2021/07/06 01:08:47;;;;;;;8.32;5.88;;;21.20;92.60;;;;;;5071213;28;20051;-69
2021/07/06 01:11:33;;;;;;;8.93;4.95;;;21.20;92.60;;;;;;5072241;28;20070;-69
2021/07/06 01:14:18;;;;;;;6.28;3.67;;;21.20;92.60;;;;;;5050664;28;20036;-69
2021/07/06 01:17:03;;;;;;;12.63;6.95;;;21.20;92.60;;;;;;5072217;28;20035;-69
2021/07/06 01:19:47;;;;;;;21.27;10.38;;;21.20;92.60;;;;;;5070351;28;20514;-69
2021/07/06 01:22:33;;;;;;;21.50;12.23;;;21.20;92.60;;;;;;5071914;28;20048;-69
2021/07/06 01:25:17;;;;;;;32.72;18.42;;;21.20;92.70;;;;;;5079021;28;20662;-73
2021/07/06 01:28:03;;;;;;;16.85;10.25;;;21.10;92.70;;;;;;5070402;28;20129;-72
2021/07/06 01:30:47;;;;;;;22.38;11.95;;;21.20;92.80;;;;;;5047916;28;20519;-73
2021/07/06 01:33:33;;;;;;;11.77;6.93;;;21.10;92.80;;;;;;5072233;28;20094;-73
2021/07/06 01:36:18;;;;;;;11.88;7.47;;;21.10;92.80;;;;;;5071001;28;20056;-72
2021/07/06 01:39:02;;;;;;;8.70;4.97;;;21.10;92.80;;;;;;5072002;28;20499;-73
2021/07/06 01:41:46;;;;;;;6.40;3.80;;;21.00;92.80;;;;;;5071489;28;20054;-72
2021/07/06 01:44:31;;;;;;;5.05;3.70;;;21.00;92.90;;;;;;5068986;28;20040;-72
2021/07/06 01:47:14;;;;;;;6.73;4.13;;;21.00;93.00;;;;;;5067770;28;20503;-73
2021/07/06 01:49:59;;;;;;;8.70;3.88;;;21.00;93.30;;;;;;5066109;28;20028;-72
2021/07/06 01:52:45;;;;;;;8.23;4.55;;;21.00;93.10;;;;;;5063631;28;20179;-73
2021/07/06 01:55:32;;;;;;;8.57;4.75;;;20.90;93.20;;;;;;5047535;28;20086;-73
2021/07/06 01:58:18;;;;;;;5.65;4.13;;;20.90;93.30;;;;;;5069804;28;20082;-72
2021/07/06 02:01:03;;;;;;;6.75;3.50;;;20.90;93.30;;;;;;5041652;28;20043;-72
2021/07/06 02:03:51;;;;;;;4.95;3.00;;;20.90;93.40;;;;;;5063293;28;20048;-72
2021/07/06 02:06:35;;;;;;;6.38;3.60;;;20.90;93.50;;;;;;5062233;28;20134;-72
2021/07/06 02:09:19;;;;;;;9.30;4.10;;;20.90;93.50;;;;;;5070963;28;20039;-72
2021/07/06 02:12:03;;;;;;;7.03;3.88;;;20.90;93.60;;;;;;5071738;28;20038;-72
2021/07/06 02:14:48;;;;;;;7.40;4.07;;;20.80;93.60;;;;;;5066531;28;20067;-72
2021/07/06 02:17:32;;;;;;;5.68;3.92;;;20.80;93.70;;;;;;5070259;28;20594;-72
2021/07/06 02:20:17;;;;;;;4.30;3.10;;;20.80;93.80;;;;;;5070603;28;20530;-72
2021/07/06 02:23:06;;;;;;;5.30;3.60;;;20.70;93.80;;;;;;5071623;28;20036;-72
2021/07/06 02:25:50;;;;;;;6.22;3.63;;;20.70;93.90;;;;;;5070597;28;20115;-72
2021/07/06 02:28:35;;;;;;;6.25;3.10;;;20.70;93.90;;;;;;5051620;28;20171;-72
2021/07/06 02:31:19;;;;;;;5.00;3.25;;;20.70;94.00;;;;;;5046778;28;20044;-72
2021/07/06 02:34:03;;;;;;;4.63;3.33;;;20.70;94.10;;;;;;5051487;28;20079;-71
2021/07/06 02:36:48;;;;;;;3.67;3.03;;;20.70;94.10;;;;;;5071059;28;20090;-72
2021/07/06 02:39:31;;;;;;;3.80;2.83;;;20.60;94.10;;;;;;5070278;28;20048;-72
2021/07/06 02:42:16;;;;;;;5.53;3.22;;;20.60;94.20;;;;;;5080945;28;20144;-72
2021/07/06 02:45:00;;;;;;;4.68;3.10;;;20.60;94.30;;;;;;5070344;28;20035;-73
2021/07/06 02:47:46;;;;;;;5.72;3.22;;;20.60;94.30;;;;;;5072157;28;20507;-72
2021/07/06 02:50:30;;;;;;;4.55;3.28;;;20.60;94.40;;;;;;5066062;28;20468;-72
2021/07/06 02:53:14;;;;;;;4.20;3.13;;;20.60;94.40;;;;;;5074927;28;20388;-72
2021/07/06 02:55:58;;;;;;;4.78;3.35;;;20.50;94.50;;;;;;5074492;28;20047;-72
2021/07/06 02:58:42;;;;;;;4.68;3.17;;;20.50;94.60;;;;;;5077620;28;20129;-71
2021/07/06 03:01:26;;;;;;;4.80;3.70;;;20.50;94.60;;;;;;5073725;28;20388;-72
2021/07/06 03:04:10;;;;;;;4.07;3.05;;;20.50;94.70;;;;;;5074815;28;20673;-72
2021/07/06 03:06:54;;;;;;;6.17;3.70;;;20.50;94.70;;;;;;5074482;28;20060;-72
2021/07/06 03:09:38;;;;;;;4.68;3.88;;;20.50;94.70;;;;;;5073734;28;20031;-71
2021/07/06 03:12:22;;;;;;;4.33;3.67;;;20.40;94.80;;;;;;5074869;28;20055;-71
2021/07/06 03:15:14;;;;;;;4.07;3.15;;;20.40;94.90;;;;;;5066520;28;20287;-71
2021/07/06 03:18:05;;;;;;;6.10;3.65;;;20.40;95.00;;;;;;5068024;28;20117;-71
2021/07/06 03:20:51;;;;;;;5.82;3.80;;;20.40;95.00;;;;;;5073959;28;20102;-74
2021/07/06 03:23:37;;;;;;;6.65;4.10;;;20.30;95.00;;;;;;5073144;28;20082;-74
2021/07/06 03:26:23;;;;;;;6.57;3.55;;;20.30;95.20;;;;;;5056214;28;20045;-74
2021/07/06 03:29:08;;;;;;;4.85;3.28;;;20.40;95.20;;;;;;5054691;28;20025;-74
2021/07/06 03:31:54;;;;;;;5.00;3.78;;;20.30;95.20;;;;;;5047506;28;20067;-76
2021/07/06 03:34:41;;;;;;;6.20;3.47;;;20.30;95.30;;;;;;5053136;28;20026;-73
2021/07/06 03:37:27;;;;;;;4.15;3.53;;;20.30;95.30;;;;;;5072059;28;20153;-73
2021/07/06 03:40:14;;;;;;;5.45;3.85;;;20.30;95.40;;;;;;5064595;28;20060;-74
2021/07/06 03:43:00;;;;;;;4.28;3.67;;;20.30;95.40;;;;;;5066781;28;20588;-74
2021/07/06 03:45:46;;;;;;;5.97;3.88;;;20.30;95.60;;;;;;5072382;28;20024;-73
2021/07/06 03:48:32;;;;;;;4.50;3.65;;;20.30;95.40;;;;;;5073210;28;20032;-73
2021/07/06 03:51:18;;;;;;;6.70;3.67;;;20.30;95.50;;;;;;5044211;28;20111;-73
2021/07/06 03:54:03;;;;;;;6.05;4.05;;;20.40;95.60;;;;;;5062565;28;20022;-73
2021/07/06 03:56:49;;;;;;;5.35;3.65;;;20.40;95.60;;;;;;5058321;28;20025;-73
2021/07/06 03:59:35;;;;;;;4.85;3.80;;;20.40;95.70;;;;;;5054799;28;20079;-73
2021/07/06 04:02:21;;;;;;;5.53;4.13;;;20.40;95.70;;;;;;5072132;28;20583;-73
2021/07/06 04:05:09;;;;;;;7.07;3.97;;;20.50;95.70;;;;;;5071302;28;20484;-73
2021/07/06 04:07:55;;;;;;;5.38;4.00;;;20.60;95.70;;;;;;5072242;28;20455;-73
2021/07/06 04:10:41;;;;;;;5.35;4.05;;;20.60;95.60;;;;;;5071638;28;20036;-73
2021/07/06 04:13:27;;;;;;;7.03;4.22;;;20.60;95.70;;;;;;5072419;28;20056;-73
2021/07/06 04:16:13;;;;;;;10.32;3.75;;;20.70;95.60;;;;;;5071171;28;20091;-73
2021/07/06 04:18:59;;;;;;;5.20;3.83;;;20.80;95.50;;;;;;5066945;28;20029;-71
2021/07/06 04:21:45;;;;;;;6.63;3.65;;;20.90;95.40;;;;;;5056677;28;20201;-73
2021/07/06 04:24:30;;;;;;;6.65;4.03;;;21.00;95.40;;;;;;5068870;28;20024;-73
2021/07/06 04:27:17;;;;;;;6.32;3.90;;;21.10;95.30;;;;;;5071977;28;20036;-72
2021/07/06 04:30:05;;;;;;;5.70;3.83;;;21.10;95.30;;;;;;5067019;28;20460;-73
2021/07/06 04:32:50;;;;;;;5.00;3.53;;;21.10;95.10;;;;;;5073139;28;20021;-73
2021/07/06 04:35:36;;;;;;;5.15;3.47;;;21.20;95.00;;;;;;5072234;28;20031;-73
2021/07/06 04:38:22;;;;;;;6.43;3.08;;;21.20;94.90;;;;;;5072160;28;20024;-74
2021/07/06 04:41:08;;;;;;;6.20;3.90;;;21.20;94.70;;;;;;5063547;28;20070;-74
2021/07/06 04:43:54;;;;;;;8.38;3.50;;;21.20;94.70;;;;;;5071905;28;20021;-74
2021/07/06 04:46:40;;;;;;;4.43;3.10;;;21.20;94.70;;;;;;5063521;28;20039;-73
2021/07/06 04:49:29;;;;;;;6.78;3.20;;;21.20;94.60;;;;;;5070186;28;20395;-73
2021/07/06 04:52:16;;;;;;;4.13;3.25;;;21.20;94.70;;;;;;5064267;28;20119;-73
2021/07/06 04:55:03;;;;;;;6.18;2.88;;;21.20;94.70;;;;;;5071863;28;20021;-73
2021/07/06 04:57:48;;;;;;;5.93;3.03;;;21.20;94.70;;;;;;5071904;28;20386;-73
2021/07/06 05:00:34;;;;;;;7.57;3.33;;;21.20;94.60;;;;;;5068997;28;20373;-72
2021/07/06 05:03:20;;;;;;;4.65;2.95;;;21.20;94.50;;;;;;5072782;28;20093;-73
2021/07/06 05:06:06;;;;;;;6.32;2.80;;;21.20;94.40;;;;;;5069155;28;20084;-72
2021/07/06 05:08:34;;;;;;;6.70;3.22;;;21.30;94.50;;;;;;5071995;28;20064;-72
2021/07/06 05:11:18;;;;;;;6.82;2.95;;;21.30;94.40;;;;;;5070706;28;20031;-72
2021/07/06 05:14:02;;;;;;;4.68;3.03;;;21.30;94.30;;;;;;5072248;28;20163;-72
2021/07/06 05:16:46;;;;;;;4.45;3.10;;;21.40;94.20;;;;;;5071602;28;20734;-73
2021/07/06 05:19:30;;;;;;;6.93;3.13;;;21.40;94.30;;;;;;5070464;28;20119;-72
2021/07/06 05:22:15;;;;;;;4.30;3.47;;;21.40;94.20;;;;;;5072425;28;20391;-72
2021/07/06 05:24:59;;;;;;;;;;;21.50;94.20;;;;;;5071819;28;20132;-73
2021/07/06 05:27:43;;;;;;;4.03;2.97;;;21.50;94.10;;;;;;5072220;28;20379;-73
2021/07/06 05:30:27;;;;;;;4.88;3.40;;;21.50;94.10;;;;;;5070629;28;20116;-73
2021/07/06 05:33:11;;;;;;;6.73;3.23;;;21.50;94.00;;;;;;5056776;28;20047;-73
2021/07/06 05:35:55;;;;;;;4.22;2.70;;;21.60;94.10;;;;;;5070919;28;20040;-73
2021/07/06 05:38:39;;;;;;;6.20;3.17;;;21.60;94.00;;;;;;5072205;28;20108;-73
2021/07/06 05:41:24;;;;;;;3.53;2.60;;;21.70;93.90;;;;;;5071022;28;20036;-72
2021/07/06 05:44:08;;;;;;;3.53;2.58;;;21.80;93.80;;;;;;5071981;28;20094;-73
2021/07/06 05:46:52;;;;;;;3.17;2.30;;;21.80;93.70;;;;;;5071696;28;20533;-74
2021/07/06 05:49:36;;;;;;;5.72;2.65;;;21.90;93.60;;;;;;5069069;28;20059;-72
2021/07/06 05:52:21;;;;;;;4.27;2.77;;;21.90;93.50;;;;;;5072051;28;20396;-72
2021/07/06 05:55:07;;;;;;;3.85;2.55;;;22.00;93.60;;;;;;5070608;28;20294;-73
2021/07/06 05:57:51;;;;;;;4.00;2.60;;;22.10;93.40;;;;;;5071998;28;20055;-72
2021/07/06 06:00:37;;;;;;;7.10;2.80;;;22.20;93.30;;;;;;5070582;28;20043;-72
2021/07/06 06:03:21;;;;;;;4.32;2.60;;;22.30;93.30;;;;;;5085070;28;20035;-73
2021/07/06 06:06:08;;;;;;;2.92;2.28;;;22.30;93.30;;;;;;5068981;28;20637;-73
2021/07/06 06:08:52;;;;;;;2.83;2.30;;;22.40;93.40;;;;;;5071612;28;20052;-76
2021/07/06 06:11:36;;;;;;;3.90;2.47;;;22.40;93.00;;;;;;5068072;28;20035;-72
2021/07/06 06:14:20;;;;;;;3.73;2.00;;;22.50;93.00;;;;;;5051163;28;20040;-73
2021/07/06 06:17:04;;;;;;;6.63;2.63;;;22.60;93.00;;;;;;5066010;28;20805;-74
2021/07/06 06:19:48;;;;;;;5.18;2.67;;;22.70;93.30;;;;;;5066190;28;20411;-76
2021/07/06 06:22:32;;;;;;;5.22;2.95;;;22.70;93.10;;;;;;5065510;28;20408;-84
2021/07/06 06:25:16;;;;;;;6.07;2.40;;;22.80;92.90;;;;;;5074282;28;20054;-75
2021/07/06 06:28:00;;;;;;;5.38;2.70;;;23.00;92.90;;;;;;5072203;28;20531;-78
2021/07/06 06:30:44;;;;;;;3.53;2.15;;;23.00;92.60;;;;;;5073032;28;20062;-76
2021/07/06 06:33:29;;;;;;;4.28;2.00;;;23.10;92.60;;;;;;5060463;28;20039;-85
2021/07/06 06:36:12;;;;;;;3.20;2.30;;;23.10;92.40;;;;;;5065633;28;20812;-84
2021/07/06 06:38:56;;;;;;;2.70;1.90;;;23.20;92.40;;;;;;5068956;28;20302;-83
2021/07/06 06:41:40;;;;;;;4.97;2.22;;;23.20;92.40;;;;;;5071591;28;20035;-81
2021/07/06 06:44:25;;;;;;;4.63;2.38;;;23.20;92.20;;;;;;5068166;28;20499;-81
2021/07/06 06:47:08;;;;;;;4.97;3.17;;;23.30;92.20;;;;;;5075774;28;20039;-83
2021/07/06 06:49:52;;;;;;;4.00;2.03;;;23.30;91.90;;;;;;5059868;28;20071;-81
2021/07/06 06:52:36;;;;;;;3.88;1.98;;;23.40;91.90;;;;;;5074641;28;20035;-82
2021/07/06 06:55:21;;;;;;;2.90;1.70;;;23.50;91.70;;;;;;5078828;28;20077;-80
2021/07/06 06:58:05;;;;;;;4.85;1.90;;;23.50;91.60;;;;;;5071937;28;20434;-81
2021/07/06 07:00:49;;;;;;;3.25;1.90;;;23.60;91.50;;;;;;5071102;28;20043;-80
2021/07/06 07:03:33;;;;;;;3.10;2.00;;;23.60;91.30;;;;;;5073493;28;20074;-81
2021/07/06 07:06:17;;;;;;;5.80;1.98;;;23.70;91.30;;;;;;5062323;28;20605;-80
2021/07/06 07:08:45;;;;;;;2.88;1.90;;;23.80;91.10;;;;;;5061197;28;20072;-80
2021/07/06 07:11:29;;;;;;;11.02;2.60;;;23.80;90.90;;;;;;5072203;28;20031;-80
2021/07/06 07:14:15;;;;;;;4.10;1.80;;;23.90;90.70;;;;;;5069759;28;20040;-80
2021/07/06 07:17:01;;;;;;;3.55;2.40;;;24.00;90.60;;;;;;5071093;28;20024;-79
2021/07/06 07:19:46;;;;;;;2.40;1.60;;;24.00;90.50;;;;;;5067780;28;20060;-80
2021/07/06 07:22:33;;;;;;;2.92;1.85;;;24.10;90.40;;;;;;5069178;28;20031;-78
2021/07/06 07:25:20;;;;;;;1.85;1.48;;;24.20;90.20;;;;;;5068175;28;20489;-78
2021/07/06 07:28:06;;;;;;;4.75;1.88;;;24.30;90.10;;;;;;5080012;28;20033;-78
2021/07/06 07:30:52;;;;;;;2.80;1.67;;;24.50;90.20;;;;;;5064558;28;20041;-79
2021/07/06 07:33:38;;;;;;;3.00;1.70;;;24.60;90.10;;;;;;5070536;28;20432;-78
2021/07/06 07:36:24;;;;;;;2.72;1.52;;;24.70;90.00;;;;;;5084069;28;20020;-79
2021/07/06 07:39:10;;;;;;;1.83;1.40;;;24.80;89.00;;;;;;5093033;28;20063;-80
2021/07/06 07:41:56;;;;;;;2.65;1.85;;;24.90;88.30;;;;;;5069289;28;20017;-78
2021/07/06 07:44:44;;;;;;;5.22;1.80;;;25.00;88.90;;;;;;5055561;28;20052;-78
2021/07/06 07:47:30;;;;;;;5.30;1.70;;;25.10;87.40;;;;;;5054563;28;20032;-78
2021/07/06 07:50:15;;;;;;;3.97;1.58;;;25.10;86.90;;;;;;5068106;28;20032;-78
2021/07/06 07:53:01;;;;;;;4.50;1.77;;;25.10;86.90;;;;;;5053284;28;20512;-79
2021/07/06 07:55:50;;;;;;;2.15;1.40;;;25.10;86.20;;;;;;5064497;28;20033;-74
2021/07/06 07:58:36;;;;;;;2.80;1.70;;;25.10;85.60;;;;;;5061137;28;20017;-81
2021/07/06 08:01:22;;;;;;;2.72;1.52;;;25.10;85.40;;;;;;5073039;28;20032;-74
2021/07/06 08:04:08;;;;;;;2.70;1.35;;;25.20;84.80;;;;;;5070559;28;20020;-77
2021/07/06 08:06:54;;;;;;;3.33;1.90;;;25.30;84.80;;;;;;5069844;28;20163;-80
2021/07/06 08:09:40;;;;;;;2.22;1.55;;;25.30;85.00;;;;;;5064979;28;20404;-78
2021/07/06 08:12:25;;;;;;;2.22;1.30;;;25.30;84.70;;;;;;5076281;28;20111;-77
2021/07/06 08:15:12;;;;;;;2.17;1.70;;;25.30;84.40;;;;;;5053790;28;20035;-76
2021/07/06 08:17:58;;;;;;;2.58;1.88;;;25.40;83.80;;;;;;5072932;28;20081;-71
2021/07/06 08:20:44;;;;;;;3.22;1.80;;;25.40;83.40;;;;;;5065870;28;20127;-71
2021/07/06 08:23:31;;;;;;;3.15;1.58;;;25.50;83.00;;;;;;5072843;28;20024;-71
2021/07/06 08:26:17;;;;;;;2.22;1.35;;;25.50;82.80;;;;;;5069191;28;20043;-71
2021/07/06 08:29:04;;;;;;;3.38;1.25;;;25.50;82.60;;;;;;5075154;28;20377;-71
2021/07/06 08:31:50;;;;;;;4.47;1.50;;;25.60;82.80;;;;;;5063159;28;20032;-71
2021/07/06 08:34:36;;;;;;;2.10;1.48;;;25.60;81.90;;;;;;5066444;28;20056;-71
2021/07/06 08:37:22;;;;;;;2.72;1.55;;;25.60;81.20;;;;;;5051213;28;20400;-71
2021/07/06 08:40:09;;;;;;;1.77;1.40;;;25.60;80.90;;;;;;5070187;28;20032;-71
2021/07/06 08:42:59;;;;;;;2.00;1.58;;;25.70;80.20;;;;;;5066800;28;20082;-71
2021/07/06 08:45:45;;;;;;;3.47;1.45;;;25.70;80.10;;;;;;5070513;28;20107;-71
2021/07/06 08:48:33;;;;;;;4.20;1.60;;;25.80;80.10;;;;;;5067179;28;20024;-71
2021/07/06 08:51:21;;;;;;;2.50;1.50;;;25.90;79.90;;;;;;5064527;28;20037;-71
2021/07/06 08:54:07;;;;;;;2.22;1.42;;;26.00;80.10;;;;;;5064074;28;20037;-72
2021/07/06 08:56:53;;;;;;;4.13;1.98;;;26.00;78.70;;;;;;5070031;28;20025;-71
2021/07/06 08:59:40;;;;;;;2.40;1.70;;;26.00;78.20;;;;;;5067949;28;20143;-71
2021/07/06 09:02:26;;;;;;;2.35;1.30;;;26.10;78.10;;;;;;5061214;28;20052;-72
2021/07/06 09:05:20;;;;;;;3.10;1.33;;;26.20;78.10;;;;;;5062485;28;20040;-72
2021/07/06 09:08:07;;;;;;;1.70;1.38;;;26.20;77.40;;;;;;5065582;28;20036;-70
2021/07/06 09:10:51;;;;;;;2.67;1.50;;;26.30;78.20;;;;;;5061524;28;20051;-70
2021/07/06 09:13:35;;;;;;;2.17;1.38;;;26.30;77.30;;;;;;5069248;28;20095;-70
2021/07/06 09:16:03;;;;;;;5.43;1.60;;;26.30;77.30;;;;;;5065861;28;20515;-71
2021/07/06 09:18:33;;;;;;;1.27;1.10;;;26.40;77.10;;;;;;5048922;28;20044;-71
2021/07/06 09:21:08;;;;;;;1.73;1.30;;;26.40;75.80;;;;;;5063497;28;20040;-71
2021/07/06 09:23:38;;;;;;;2.15;1.30;;;26.50;76.70;;;;;;5059189;28;20131;-71
2021/07/06 09:26:15;;;;;;;2.50;1.40;;;26.60;76.40;;;;;;5064005;28;20077;-70
2021/07/06 09:28:46;;;;;;;2.42;1.35;;;26.70;76.00;;;;;;5071959;28;20024;-71
2021/07/06 09:31:17;;;;;;;3.92;1.50;;;26.70;75.70;;;;;;5059148;28;20097;-71
2021/07/06 09:33:55;;;;;;;2.58;1.20;;;26.80;75.00;;;;;;5072259;28;20462;-70
2021/07/06 09:36:48;;;;;;;4.35;1.42;;;26.90;74.90;;;;;;5064678;28;20112;-71
2021/07/06 09:39:24;;;;;;;1.95;1.25;;;27.00;74.30;;;;;;5062829;28;20033;-72
2021/07/06 09:42:00;;;;;;;2.85;1.30;;;27.00;73.30;;;;;;5071061;28;20073;-71
2021/07/06 09:44:36;;;;;;;2.17;1.30;;;27.10;73.70;;;;;;5052606;28;20025;-71
2021/07/06 09:47:03;;;;;;;3.65;1.30;;;27.20;74.00;;;;;;5069265;28;20049;-73
2021/07/06 09:49:41;;;;;;;2.10;1.27;;;27.20;73.00;;;;;;5068074;28;20028;-71
2021/07/06 09:52:15;;;;;;;2.13;1.20;;;27.30;72.30;;;;;;5052907;28;20036;-71
2021/07/06 09:54:46;;;;;;;1.80;1.30;;;27.40;72.20;;;;;;5070141;28;20129;-71
2021/07/06 09:57:14;;;;;;;1.90;1.20;;;27.40;72.50;;;;;;5058649;28;20053;-71
2021/07/06 09:59:54;;;;;;;6.60;1.38;;;27.50;72.20;;;;;;5073119;28;20096;-71
2021/07/06 10:02:23;;;;;;;1.35;1.10;;;27.50;71.10;;;;;;5075180;28;20025;-72
2021/07/06 10:04:52;;;;;;;3.20;1.30;;;27.60;70.60;;;;;;5066882;28;20037;-71
2021/07/06 10:07:23;;;;;;;1.23;1.08;;;27.60;70.80;;;;;;5071481;28;20044;-71
2021/07/06 10:09:49;;;;;;;2.05;1.10;;;27.70;70.50;;;;;;5068532;28;20357;-70
2021/07/06 10:12:36;;;;;;;2.00;1.50;;;27.70;70.60;;;;;;5068138;28;20554;-71
2021/07/06 10:15:21;;;;;;;2.63;1.17;;;27.80;70.60;;;;;;5051596;28;20040;-72
2021/07/06 10:18:05;;;;;;;1.73;1.17;;;27.80;69.40;;;;;;5058868;28;20031;-70
2021/07/06 10:20:50;;;;;;;4.55;1.42;;;27.80;69.00;;;;;;5069946;28;20451;-70
2021/07/06 10:23:35;;;;;;;3.22;1.45;;;27.90;69.10;;;;;;5071506;28;20124;-71
2021/07/06 10:26:27;;;;;;;2.92;1.10;;;27.90;68.90;;;;;;5071012;28;20048;-71
2021/07/06 10:29:12;;;;;;;1.90;1.10;;;28.00;67.60;;;;;;5071256;28;20035;-71
2021/07/06 10:31:56;;;;;;;;;;;28.00;67.80;;;;;;5051644;28;20357;-71
2021/07/06 10:34:43;;;;;;;2.28;1.10;;;28.10;65.70;;;;;;5051305;28;19950;-70
2021/07/06 10:37:30;;;;;;;2.13;1.20;;;28.10;66.20;;;;;;5064285;28;20090;-71
2021/07/06 10:40:16;;;;;;;1.75;1.15;;;28.20;66.10;;;;;;5072709;28;20029;-70
2021/07/06 10:42:44;;;;;;;3.38;1.00;;;28.20;65.90;;;;;;5080269;28;20024;-70
2021/07/06 10:45:18;;;;;;;7.47;1.10;;;28.20;64.40;;;;;;5074115;28;20039;-70
2021/07/06 10:48:02;;;;;;;1.92;1.13;;;28.30;65.20;;;;;;5073392;28;20070;-70
2021/07/06 10:50:47;;;;;;;1.67;1.23;;;28.30;64.70;;;;;;5071005;28;20466;-69
2021/07/06 10:53:32;;;;;;;1.50;0.85;;;28.30;63.60;;;;;;5085338;28;20408;-70
2021/07/06 10:56:30;;;;;;;;;;;28.40;63.40;;;;;;5055059;28;20043;-70
2021/07/06 10:59:18;;;;;;;3.42;1.20;;;28.40;64.60;;;;;;5050588;28;19916;-70
2021/07/06 11:02:12;;;;;;;1.58;1.00;;;28.50;64.00;;;;;;5059850;28;20027;-70
2021/07/06 11:04:58;;;;;;;4.17;1.20;;;28.50;62.90;;;;;;5069718;28;20051;-70
2021/07/06 11:07:49;;;;;;;4.35;1.27;;;28.60;63.20;;;;;;5074340;28;20042;-70
2021/07/06 11:10:36;;;;;;;1.92;1.40;;;28.70;63.30;;;;;;5066001;28;20036;-70
2021/07/06 11:13:16;;;;;;;1.65;1.20;;;28.80;63.80;;;;;;5066538;28;20178;-70
2021/07/06 11:15:41;;;;;;;1.75;1.20;;;28.90;63.10;;;;;;5074894;28;20033;-70
2021/07/06 11:18:11;;;;;;;2.53;1.10;;;28.90;63.50;;;;;;5074868;28;20503;-70
2021/07/06 11:20:43;;;;;;;2.00;1.30;;;29.00;62.10;;;;;;5069422;28;20086;-70
2021/07/06 11:23:18;;;;;;;4.25;1.20;;;29.10;62.40;;;;;;5072892;28;20107;-71
2021/07/06 11:25:45;;;;;;;17.27;1.92;;;29.10;61.40;;;;;;5080148;28;20662;-70
2021/07/06 11:28:26;;;;;;;2.70;1.20;;;29.10;61.50;;;;;;5084369;28;20036;-69
2021/07/06 11:30:56;;;;;;;3.08;1.33;;;29.10;60.90;;;;;;5073176;28;20514;-70
2021/07/06 11:33:36;;;;;;;1.38;1.13;;;29.20;61.10;;;;;;5073431;28;20411;-70
2021/07/06 11:36:07;;;;;;;1.98;1.13;;;29.20;61.60;;;;;;5082522;28;20381;-70
2021/07/06 11:38:46;;;;;;;5.30;1.20;;;29.30;60.60;;;;;;5084166;28;20032;-70
2021/07/06 11:41:14;;;;;;;1.98;1.30;;;29.30;60.10;;;;;;5093139;28;20607;-70
2021/07/06 11:43:41;;;;;;;2.45;1.20;;;29.40;60.30;;;;;;5083654;28;20128;-70
2021/07/06 11:46:09;;;;;;;2.25;1.38;;;29.40;59.80;;;;;;5075914;28;20093;-71
2021/07/06 11:48:36;;;;;;;2.03;1.20;;;29.50;59.70;;;;;;5081175;28;20033;-73
2021/07/06 11:51:14;;;;;;;2.75;1.23;;;29.60;59.40;;;;;;5072837;28;20089;-73
2021/07/06 11:53:43;;;;;;;1.10;1.00;;;29.60;59.20;;;;;;5071396;28;20033;-72
2021/07/06 11:56:10;;;;;;;2.75;1.65;;;29.70;59.00;;;;;;5070518;28;20392;-72
2021/07/06 11:58:36;;;;;;;2.15;1.20;;;29.70;59.30;;;;;;5068838;28;20093;-70
2021/07/06 12:01:09;;;;;;;2.47;1.08;;;29.70;59.10;;;;;;5073342;28;20381;-70
2021/07/06 12:03:36;;;;;;;2.75;1.25;;;29.80;58.40;;;;;;5068021;28;20024;-71
2021/07/06 12:06:03;;;;;;;1.05;0.93;;;29.90;59.10;;;;;;5066699;28;20064;-72
2021/07/06 12:08:33;;;;;;;2.45;1.52;;;29.90;58.70;;;;;;5078965;28;20028;-71
2021/07/06 12:11:19;;;;;;;2.20;1.30;;;30.00;59.00;;;;;;5061100;28;20021;-71
2021/07/06 12:13:49;;;;;;;3.00;1.25;;;30.10;59.30;;;;;;5071939;28;20035;-72
2021/07/06 12:16:21;;;;;;;2.95;1.33;;;30.20;58.50;;;;;;5070096;28;20788;-72
2021/07/06 12:18:56;;;;;;;1.65;1.27;;;30.20;58.30;;;;;;5065196;28;20060;-71
2021/07/06 12:21:35;;;;;;;1.77;1.20;;;30.10;58.80;;;;;;5064974;28;20060;-71
2021/07/06 12:24:12;;;;;;;1.83;1.20;;;30.10;57.60;;;;;;5069417;28;20492;-71
2021/07/06 12:26:43;;;;;;;3.60;1.42;;;30.20;57.10;;;;;;5070337;28;20516;-71
2021/07/06 12:29:08;;;;;;;2.47;1.23;;;30.20;57.80;;;;;;5069222;28;20485;-70
2021/07/06 12:31:38;;;;;;;1.75;1.15;;;30.20;57.30;;;;;;5071020;28;20162;-72
2021/07/06 12:34:10;;;;;;;1.88;1.30;;;30.10;57.10;;;;;;5068669;28;20053;-71
2021/07/06 12:36:49;;;;;;;3.60;1.50;;;30.20;57.90;;;;;;5068650;28;20032;-72
2021/07/06 12:39:19;;;;;;;3.95;1.52;;;30.30;57.30;;;;;;5081360;28;20044;-72
2021/07/06 12:41:54;;;;;;;3.50;2.00;;;30.40;56.40;;;;;;5060734;28;20033;-73
2021/07/06 12:44:31;;;;;;;5.47;1.60;;;30.50;57.30;;;;;;5069723;28;20039;-72
2021/07/06 12:47:21;;;;;;;4.63;1.88;;;30.40;57.20;;;;;;5058868;28;20165;-72
2021/07/06 12:49:56;;;;;;;1.90;1.30;;;30.50;56.50;;;;;;5065098;28;20104;-73
2021/07/06 12:52:36;;;;;;;2.47;1.65;;;30.60;56.60;;;;;;5063249;28;20046;-71
2021/07/06 12:55:19;;;;;;;1.30;1.15;;;30.70;56.60;;;;;;5060870;28;20032;-73
2021/07/06 12:58:11;;;;;;;7.30;1.48;;;30.70;55.70;;;;;;5058299;28;20046;-71
2021/07/06 13:00:39;;;;;;;4.30;1.50;;;30.60;55.80;;;;;;5064812;28;20048;-72
2021/07/06 13:03:13;;;;;;;2.42;1.02;;;30.50;55.10;;;;;;5066501;28;20029;-71
2021/07/06 13:05:48;;;;;;;2.60;1.42;;;30.50;55.80;;;;;;5063463;28;20052;-71
2021/07/06 13:08:20;;;;;;;1.27;1.10;;;30.50;56.30;;;;;;5061816;28;20033;-71
2021/07/06 13:10:47;;;;;;;3.80;1.52;;;30.40;55.60;;;;;;5069804;28;20028;-71
2021/07/06 13:13:14;;;;;;;2.78;1.92;;;30.50;55.30;;;;;;5067729;28;20039;-70
2021/07/06 13:15:47;;;;;;;3.13;2.08;;;30.50;55.90;;;;;;5062444;28;20029;-71
2021/07/06 13:18:20;;;;;;;2.03;1.52;;;30.50;55.70;;;;;;5062557;28;20028;-77
2021/07/06 13:20:49;;;;;;;2.20;1.40;;;30.50;55.60;;;;;;5046159;28;20091;-73
2021/07/06 13:23:15;;;;;;;6.15;1.42;;;30.60;54.80;;;;;;5075106;28;20116;-72
2021/07/06 13:25:41;;;;;;;4.57;2.17;;;30.70;54.80;;;;;;5065065;28;20024;-72
2021/07/06 13:28:08;;;;;;;2.58;1.42;;;30.80;54.70;;;;;;5070497;28;20033;-73
2021/07/06 13:30:40;;;;;;;3.65;1.80;;;30.80;54.60;;;;;;5085051;28;20055;-74
2021/07/06 13:33:13;;;;;;;3.50;1.48;;;30.80;54.50;;;;;;5084668;28;20043;-74
2021/07/06 13:35:40;;;;;;;4.28;2.97;;;30.80;54.00;;;;;;5067371;28;20430;-74
2021/07/06 13:38:06;;;;;;;3.65;1.85;;;30.80;54.30;;;;;;5069409;28;20107;-74
2021/07/06 13:40:32;;;;;;;4.35;1.70;;;30.80;53.80;;;;;;5083016;28;20112;-74
2021/07/06 13:42:58;;;;;;;2.65;1.45;;;30.90;54.40;;;;;;5070507;28;20109;-74
2021/07/06 13:45:23;;;;;;;2.95;1.30;;;30.90;54.30;;;;;;5074744;28;20546;-73
2021/07/06 13:47:52;;;;;;;2.85;1.63;;;31.00;53.90;;;;;;5071719;28;20028;-73
2021/07/06 13:50:37;;;;;;;2.33;1.63;;;31.00;53.90;;;;;;5057389;28;20062;-76
2021/07/06 13:53:21;;;;;;;;;;;31.00;53.40;;;;;;5062893;28;20093;-74
2021/07/06 13:56:06;;;;;;;2.05;1.20;;;31.00;54.50;;;;;;5062736;28;19954;-75
2021/07/06 13:58:50;;;;;;;3.50;2.13;;;31.00;54.20;;;;;;5068853;28;20043;-73
2021/07/06 14:01:34;;;;;;;3.50;2.65;;;31.00;54.40;;;;;;5079163;28;20117;-74